createdAt,value
2022-08-12T00:00:19.133Z,20.60
2022-08-12T00:03:04.297Z,20.50
2022-08-12T00:06:01.765Z,20.40
2022-08-12T00:08:51.673Z,20.30
2022-08-12T00:11:37.666Z,20.30
2022-08-12T00:14:23.152Z,20.20
2022-08-12T00:17:09.806Z,20.20
2022-08-12T00:19:55.585Z,20.00
2022-08-12T00:22:41.737Z,19.90
2022-08-12T00:26:01.416Z,20.00
2022-08-12T00:28:33.646Z,19.90
2022-08-12T00:31:19.726Z,19.80
2022-08-12T00:34:06.333Z,19.80
2022-08-12T00:36:52.199Z,19.70
2022-08-12T00:39:37.518Z,19.70
2022-08-12T00:42:11.014Z,19.60
2022-08-12T00:44:40.488Z,19.50
2022-08-12T00:47:25.679Z,19.40
2022-08-12T00:49:57.226Z,19.40
2022-08-12T00:52:25.935Z,19.40
2022-08-12T00:54:56.917Z,19.30
2022-08-12T00:57:26.657Z,19.30
2022-08-12T00:59:56.976Z,19.20
2022-08-12T01:02:27.969Z,19.20
2022-08-12T01:05:19.991Z,19.20
2022-08-12T01:08:06.665Z,19.10
2022-08-12T01:10:55.033Z,19.10
2022-08-12T01:13:23.256Z,19.10
2022-08-12T01:15:52.916Z,19.00
2022-08-12T01:18:21.700Z,19.00
2022-08-12T01:21:01.838Z,19.00
2022-08-12T01:23:50.090Z,18.90
2022-08-12T01:26:21.184Z,18.90
2022-08-12T01:28:50.982Z,18.90
2022-08-12T01:31:20.804Z,18.90
2022-08-12T01:34:00.645Z,18.80
2022-08-12T01:36:30.889Z,18.80
2022-08-12T01:39:00.123Z,18.70
2022-08-12T01:41:31.946Z,18.70
2022-08-12T01:44:02.211Z,18.70
2022-08-12T01:46:44.697Z,18.70
2022-08-12T01:49:37.088Z,18.60
2022-08-12T01:52:21.067Z,18.60
2022-08-12T01:54:52.687Z,18.60
2022-08-12T01:57:59.618Z,18.50
2022-08-12T02:00:19.207Z,18.50
2022-08-12T02:02:54.237Z,18.40
2022-08-12T02:05:50.117Z,18.40
2022-08-12T02:08:45.354Z,18.40
2022-08-12T02:11:19.402Z,18.30
2022-08-12T02:14:02.085Z,18.30
2022-08-12T02:17:00.441Z,18.20
2022-08-12T02:19:43.235Z,18.20
2022-08-12T02:22:27.452Z,18.20
2022-08-12T02:25:02.381Z,18.10
2022-08-12T02:27:35.882Z,18.10
2022-08-12T02:30:08.776Z,18.10
2022-08-12T02:32:41.035Z,18.00
2022-08-12T02:35:11.408Z,18.00
2022-08-12T02:37:41.136Z,18.00
2022-08-12T02:40:12.363Z,18.00
2022-08-12T02:42:51.126Z,18.00
2022-08-12T02:45:26.897Z,18.00
2022-08-12T02:48:01.099Z,17.90
2022-08-12T02:50:32.402Z,17.90
2022-08-12T02:53:01.368Z,17.90
2022-08-12T02:55:34.888Z,17.80
2022-08-12T02:58:09.018Z,17.80
2022-08-12T03:00:43.112Z,17.80
2022-08-12T03:03:14.012Z,17.80
2022-08-12T03:05:49.531Z,17.80
2022-08-12T03:08:31.879Z,17.70
2022-08-12T03:11:04.770Z,17.60
2022-08-12T03:13:40.265Z,17.60
2022-08-12T03:16:09.815Z,17.50
2022-08-12T03:18:38.489Z,17.50
2022-08-12T03:21:07.413Z,17.50
2022-08-12T03:23:37.357Z,17.40
2022-08-12T03:26:05.571Z,17.40
2022-08-12T03:28:56.463Z,17.40
2022-08-12T03:31:29.621Z,17.40
2022-08-12T03:34:03.121Z,17.30
2022-08-12T03:36:35.056Z,17.30
2022-08-12T03:39:23.571Z,17.20
2022-08-12T03:42:12.699Z,17.20
2022-08-12T03:45:05.304Z,17.10
2022-08-12T03:47:56.801Z,17.10
2022-08-12T03:50:45.432Z,17.00
2022-08-12T03:53:30.602Z,16.90
2022-08-12T03:56:15.750Z,16.90
2022-08-12T03:59:01.221Z,16.90
2022-08-12T04:01:29.321Z,16.90
2022-08-12T04:03:59.392Z,16.90
2022-08-12T04:06:34.942Z,16.90
2022-08-12T04:09:16.446Z,16.70
2022-08-12T04:12:03.771Z,16.70
2022-08-12T04:14:32.644Z,16.70
2022-08-12T04:17:01.312Z,16.70
2022-08-12T04:19:30.854Z,16.70
2022-08-12T04:22:01.791Z,16.70
2022-08-12T04:24:34.532Z,16.70
2022-08-12T04:27:03.339Z,16.80
2022-08-12T04:30:29.981Z,16.80
2022-08-12T04:32:19.153Z,16.80
2022-08-12T04:34:48.404Z,16.70
2022-08-12T04:37:16.944Z,16.80
2022-08-12T04:39:45.868Z,16.80
2022-08-12T04:42:14.143Z,16.80
2022-08-12T04:44:43.240Z,16.70
2022-08-12T04:47:14.051Z,16.70
2022-08-12T04:49:44.648Z,16.70
2022-08-12T04:52:13.868Z,16.70
2022-08-12T04:54:43.734Z,16.60
2022-08-12T04:57:11.670Z,16.70
2022-08-12T04:59:47.978Z,16.60
2022-08-12T05:02:20.970Z,16.70
2022-08-12T05:04:51.997Z,16.70
2022-08-12T05:07:24.098Z,16.70
2022-08-12T05:10:00.481Z,16.70
2022-08-12T05:12:35.977Z,16.70
2022-08-12T05:15:19.242Z,16.70
2022-08-12T05:17:52.769Z,16.70
2022-08-12T05:20:22.306Z,16.70
2022-08-12T05:22:53.119Z,16.70
2022-08-12T05:25:25.716Z,16.70
2022-08-12T05:27:58.118Z,16.70
2022-08-12T05:30:26.845Z,16.80
2022-08-12T05:32:55.663Z,16.80
2022-08-12T05:35:30.836Z,16.80
2022-08-12T05:38:27.219Z,16.90
2022-08-12T05:40:55.565Z,17.00
2022-08-12T05:43:24.045Z,17.00
2022-08-12T05:45:52.224Z,17.00
2022-08-12T05:48:24.355Z,17.10
2022-08-12T05:50:54.012Z,17.20
2022-08-12T05:53:23.829Z,17.20
2022-08-12T05:55:54.176Z,17.30
2022-08-12T05:58:22.088Z,17.40
2022-08-12T06:00:49.894Z,17.50
2022-08-12T06:03:19.696Z,17.70
2022-08-12T06:05:55.048Z,17.80
2022-08-12T06:08:25.756Z,18.00
2022-08-12T06:10:53.870Z,18.00
2022-08-12T06:13:28.713Z,18.20
2022-08-12T06:16:10.700Z,18.30
2022-08-12T06:18:40.346Z,18.40
2022-08-12T06:21:09.082Z,18.50
2022-08-12T06:23:42.810Z,18.60
2022-08-12T06:26:12.851Z,18.70
2022-08-12T06:28:41.370Z,18.80
2022-08-12T06:31:26.675Z,19.00
2022-08-12T06:34:00.578Z,19.10
2022-08-12T06:36:43.270Z,19.20
2022-08-12T06:39:14.590Z,19.30
2022-08-12T06:42:30.812Z,19.40
2022-08-12T06:44:50.889Z,19.50
2022-08-12T06:47:22.004Z,19.70
2022-08-12T06:49:50.071Z,19.80
2022-08-12T06:52:21.884Z,19.90
2022-08-12T06:54:53.430Z,20.00
2022-08-12T06:58:01.730Z,20.10
2022-08-12T07:00:11.343Z,20.30
2022-08-12T07:02:39.277Z,20.40
2022-08-12T07:05:07.605Z,20.50
2022-08-12T07:07:38.919Z,20.60
2022-08-12T07:10:08.995Z,20.80
2022-08-12T07:12:37.234Z,20.90
2022-08-12T07:15:06.057Z,21.10
2022-08-12T07:17:37.305Z,21.20
2022-08-12T07:20:09.884Z,21.40
2022-08-12T07:22:39.592Z,21.50
2022-08-12T07:25:27.338Z,21.70
2022-08-12T07:27:55.358Z,21.80
2022-08-12T07:30:23.813Z,22.00
2022-08-12T07:32:52.223Z,22.10
2022-08-12T07:35:20.615Z,22.30
2022-08-12T07:37:50.799Z,22.40
2022-08-12T07:40:21.230Z,22.50
2022-08-12T07:42:49.505Z,22.70
2022-08-12T07:45:17.759Z,22.90
2022-08-12T07:47:45.582Z,23.00
2022-08-12T07:50:16.168Z,23.20
2022-08-12T07:52:48.364Z,23.30
2022-08-12T07:55:18.656Z,23.40
2022-08-12T07:57:55.739Z,23.50
2022-08-12T08:00:23.679Z,23.60
2022-08-12T08:02:54.368Z,23.80
2022-08-12T08:05:24.601Z,23.90
2022-08-12T08:07:53.406Z,24.00
2022-08-12T08:10:21.335Z,24.20
2022-08-12T08:12:53.909Z,24.40
2022-08-12T08:15:44.421Z,24.50
2022-08-12T08:18:25.561Z,24.70
2022-08-12T08:20:55.626Z,24.80
2022-08-12T08:23:43.685Z,24.90
2022-08-12T08:26:15.520Z,25.00
2022-08-12T08:28:43.899Z,25.10
2022-08-12T08:31:14.169Z,25.20
2022-08-12T08:34:05.071Z,25.30
2022-08-12T08:36:30.430Z,25.40
2022-08-12T08:38:58.866Z,25.50
2022-08-12T08:42:17.366Z,25.60
2022-08-12T08:44:32.653Z,25.60
2022-08-12T08:47:03.357Z,25.70
2022-08-12T08:49:31.207Z,25.90
2022-08-12T08:51:59.073Z,25.90
2022-08-12T08:54:27.501Z,26.10
2022-08-12T08:56:55.637Z,26.20
2022-08-12T08:59:23.428Z,26.20
2022-08-12T09:05:12.845Z,26.40
2022-08-12T09:07:51.906Z,26.50
2022-08-12T09:10:31.357Z,26.60
2022-08-12T09:13:23.167Z,26.70
2022-08-12T09:15:55.912Z,26.90
2022-08-12T09:18:33.205Z,27.00
2022-08-12T09:21:04.019Z,27.10
2022-08-12T09:26:22.794Z,27.30
2022-08-12T09:28:57.085Z,27.40
2022-08-12T09:32:06.579Z,27.40
2022-08-12T09:34:28.172Z,27.50
2022-08-12T09:37:18.850Z,27.60
2022-08-12T09:40:03.266Z,27.70
2022-08-12T09:43:11.655Z,27.80
2022-08-12T09:46:11.879Z,27.90
2022-08-12T09:48:39.928Z,27.90
2022-08-12T09:51:16.951Z,28.00
2022-08-12T09:54:08.976Z,28.10
2022-08-12T09:56:59.171Z,28.20
2022-08-12T10:00:12.549Z,28.20
2022-08-12T10:02:44.194Z,28.20
2022-08-12T10:05:04.254Z,28.40
2022-08-12T10:07:40.425Z,28.40
2022-08-12T10:10:25.104Z,28.50
2022-08-12T10:13:35.547Z,28.50
2022-08-12T10:16:04.657Z,28.60
2022-08-12T10:18:35.681Z,28.70
2022-08-12T10:21:07.275Z,28.60
2022-08-12T10:23:40.225Z,28.60
2022-08-12T10:26:37.944Z,28.60
2022-08-12T10:30:37.472Z,28.70
2022-08-12T10:32:44.719Z,28.80
2022-08-12T10:35:10.152Z,28.90
2022-08-12T10:38:37.088Z,29.00
2022-08-12T10:40:31.402Z,29.10
2022-08-12T10:43:19.626Z,29.20
2022-08-12T10:45:49.574Z,29.30
2022-08-12T10:48:26.935Z,29.40
2022-08-12T10:51:04.184Z,29.40
2022-08-12T10:53:54.175Z,29.40
2022-08-12T10:56:34.947Z,29.40
2022-08-12T10:59:10.751Z,29.40
2022-08-12T11:04:19.202Z,29.60
2022-08-12T11:04:39.432Z,29.70
2022-08-12T11:08:35.166Z,29.80
2022-08-12T11:10:02.465Z,30.00
2022-08-12T11:12:57.026Z,30.10
2022-08-12T11:15:33.314Z,30.10
2022-08-12T11:18:12.002Z,30.20
2022-08-12T11:20:47.395Z,30.20
2022-08-12T11:23:25.278Z,30.20
2022-08-12T11:26:05.918Z,30.20
2022-08-12T11:28:36.913Z,30.30
2022-08-12T11:31:09.824Z,30.40
2022-08-12T11:34:05.620Z,30.40
2022-08-12T11:36:28.697Z,30.40
2022-08-12T11:38:57.638Z,30.50
2022-08-12T11:41:31.435Z,30.60
2022-08-12T11:44:01.983Z,30.60
2022-08-12T11:46:51.454Z,30.60
2022-08-12T11:49:31.553Z,30.70
2022-08-12T11:52:01.578Z,30.70
2022-08-12T11:54:30.205Z,30.80
2022-08-12T11:56:59.665Z,30.80
2022-08-12T12:02:20.807Z,30.80
2022-08-12T12:04:53.100Z,30.80
2022-08-12T12:08:36.674Z,30.90
2022-08-12T12:10:12.163Z,31.00
2022-08-12T12:12:50.191Z,31.20
2022-08-12T12:15:25.075Z,31.20
2022-08-12T12:18:06.521Z,31.20
2022-08-12T12:20:35.790Z,31.30
2022-08-12T12:23:04.092Z,31.30
2022-08-12T12:25:59.506Z,31.40
2022-08-12T12:28:19.991Z,31.40
2022-08-12T12:31:15.162Z,31.40
2022-08-12T12:33:57.902Z,31.50
2022-08-12T12:36:30.129Z,31.60
2022-08-12T12:38:59.900Z,31.60
2022-08-12T12:42:41.863Z,31.70
2022-08-12T12:44:25.484Z,31.70
2022-08-12T12:46:54.829Z,31.80
2022-08-12T12:49:26.448Z,31.90
2022-08-12T12:52:19.250Z,31.90
2022-08-12T12:54:52.474Z,31.90
2022-08-12T12:57:35.907Z,31.90
2022-08-12T13:00:15.749Z,32.00
2022-08-12T13:02:45.846Z,32.10
2022-08-12T13:05:27.736Z,32.10
2022-08-12T13:08:00.644Z,32.10
2022-08-12T13:10:32.118Z,32.00
2022-08-12T13:14:06.948Z,32.10
2022-08-12T13:15:59.016Z,32.20
2022-08-12T13:18:31.419Z,32.20
2022-08-12T13:21:02.109Z,32.10
2022-08-12T13:23:36.057Z,32.10
2022-08-12T13:26:05.492Z,32.10
2022-08-12T13:28:33.257Z,32.10
2022-08-12T13:31:02.985Z,32.10
2022-08-12T13:34:33.517Z,32.10
2022-08-12T13:36:21.942Z,32.20
2022-08-12T13:38:54.214Z,32.30
2022-08-12T13:41:33.552Z,32.30
2022-08-12T13:44:01.810Z,32.30
2022-08-12T13:46:29.628Z,32.20
2022-08-12T13:48:57.549Z,32.10
2022-08-12T13:51:27.001Z,32.10
2022-08-12T13:54:11.624Z,32.10
2022-08-12T13:56:41.801Z,32.20
2022-08-12T13:59:18.315Z,32.20
2022-08-12T14:01:54.435Z,32.30
2022-08-12T14:04:24.900Z,32.40
2022-08-12T14:06:54.071Z,32.40
2022-08-12T14:09:21.989Z,32.40
2022-08-12T14:11:59.497Z,32.20
2022-08-12T14:14:31.671Z,32.10
2022-08-12T14:17:05.176Z,32.10
2022-08-12T14:19:36.007Z,32.10
2022-08-12T14:22:10.549Z,32.00
2022-08-12T14:24:40.304Z,32.00
2022-08-12T14:27:10.385Z,32.10
2022-08-12T14:30:06.253Z,32.10
2022-08-12T14:32:34.970Z,32.10
2022-08-12T14:35:03.876Z,32.10
2022-08-12T14:37:56.508Z,32.10
2022-08-12T14:40:22.783Z,32.10
2022-08-12T14:42:55.404Z,31.90
2022-08-12T14:45:45.197Z,31.80
2022-08-12T14:48:14.826Z,31.80
2022-08-12T14:52:10.741Z,31.70
2022-08-12T14:59:55.683Z,31.60
2022-08-12T15:02:20.436Z,31.70
2022-08-12T15:04:50.998Z,31.90
2022-08-12T15:07:34.205Z,31.90
2022-08-12T15:10:09.248Z,32.00
2022-08-12T15:12:40.652Z,31.90
2022-08-12T15:15:11.401Z,32.00
2022-08-12T15:17:41.178Z,32.10
2022-08-12T15:20:33.261Z,32.20
2022-08-12T15:22:57.861Z,32.20
2022-08-12T15:25:27.299Z,32.10
2022-08-12T15:28:04.031Z,32.10
2022-08-12T15:30:34.568Z,32.10
2022-08-12T15:33:12.927Z,32.00
2022-08-12T15:35:52.801Z,31.90
2022-08-12T15:38:25.090Z,31.90
2022-08-12T15:40:59.024Z,31.80
2022-08-12T15:44:15.663Z,31.90
2022-08-12T15:46:17.812Z,32.00
2022-08-12T15:48:53.576Z,32.10
2022-08-12T15:51:59.946Z,32.20
2022-08-12T15:54:33.521Z,32.10
2022-08-12T15:57:07.711Z,31.90
2022-08-12T15:59:51.159Z,31.70
2022-08-12T16:02:27.066Z,31.60
2022-08-12T16:04:57.103Z,31.50
2022-08-12T16:07:26.228Z,31.30
2022-08-12T16:10:04.794Z,31.10
2022-08-12T16:12:42.072Z,30.90
2022-08-12T16:15:13.655Z,30.80
2022-08-12T16:18:18.677Z,30.70
2022-08-12T16:20:33.452Z,30.50
2022-08-12T16:23:35.975Z,30.40
2022-08-12T16:26:05.665Z,30.30
2022-08-12T16:28:36.109Z,30.20
2022-08-12T16:31:04.705Z,30.10
2022-08-12T16:33:36.032Z,30.00
2022-08-12T16:36:25.377Z,29.90
2022-08-12T16:38:53.249Z,29.90
2022-08-12T16:41:22.653Z,29.80
2022-08-12T16:43:53.336Z,29.70
2022-08-12T16:46:32.237Z,29.70
2022-08-12T16:49:09.060Z,29.60
2022-08-12T16:51:46.751Z,29.50
2022-08-12T16:54:17.021Z,29.40
2022-08-12T16:56:54.720Z,29.40
2022-08-12T16:59:31.039Z,29.30
2022-08-12T17:02:31.915Z,29.20
2022-08-12T17:05:03.334Z,29.10
2022-08-12T17:07:36.910Z,29.10
2022-08-12T17:10:07.213Z,29.00
2022-08-12T17:12:37.307Z,28.90
2022-08-12T17:15:51.366Z,28.90
2022-08-12T17:18:39.131Z,28.80
2022-08-12T17:20:49.042Z,28.80
2022-08-12T17:23:20.205Z,28.70
2022-08-12T17:25:55.624Z,28.60
2022-08-12T17:28:25.310Z,28.60
2022-08-12T17:30:59.544Z,28.50
2022-08-12T17:33:33.899Z,28.50
2022-08-12T17:36:05.376Z,28.50
2022-08-12T17:38:34.587Z,28.40
2022-08-12T17:41:22.230Z,28.40
2022-08-12T17:43:58.583Z,28.40
2022-08-12T17:46:33.518Z,28.30
2022-08-12T17:49:06.906Z,28.20
2022-08-12T17:51:51.016Z,28.10
2022-08-12T17:54:31.560Z,28.10
2022-08-12T17:57:01.720Z,28.00
2022-08-12T17:59:47.965Z,28.00
2022-08-12T18:02:25.538Z,28.00
2022-08-12T18:05:09.657Z,27.90
2022-08-12T18:07:39.567Z,27.80
2022-08-12T18:10:08.533Z,27.70
2022-08-12T18:12:40.129Z,27.70
2022-08-12T18:15:26.762Z,27.60
2022-08-12T18:18:02.360Z,27.60
2022-08-12T18:20:36.439Z,27.50
2022-08-12T18:23:05.241Z,27.50
2022-08-12T18:26:12.517Z,27.40
2022-08-12T18:28:43.023Z,27.40
2022-08-12T18:31:13.725Z,27.30
2022-08-12T18:33:46.026Z,27.30
2022-08-12T18:36:14.746Z,27.30
2022-08-12T18:38:53.073Z,27.20
2022-08-12T18:41:33.736Z,27.10
2022-08-12T18:44:07.985Z,27.10
2022-08-12T18:46:47.031Z,27.00
2022-08-12T18:49:23.623Z,26.90
2022-08-12T18:52:02.286Z,26.90
2022-08-12T18:54:34.864Z,26.80
2022-08-12T18:57:16.151Z,26.70
2022-08-12T19:00:02.236Z,26.60
2022-08-12T19:02:39.665Z,26.60
2022-08-12T19:05:12.362Z,26.50
2022-08-12T19:07:58.182Z,26.50
2022-08-12T19:10:30.053Z,26.40
2022-08-12T19:13:23.114Z,26.40
2022-08-12T19:15:53.171Z,26.40
2022-08-12T19:18:21.947Z,26.20
2022-08-12T19:20:51.306Z,26.20
2022-08-12T19:23:20.929Z,26.10
2022-08-12T19:26:00.636Z,26.10
2022-08-12T19:28:34.353Z,26.00
2022-08-12T19:31:56.177Z,26.00
2022-08-12T19:37:17.936Z,25.80
2022-08-12T19:40:10.317Z,25.70
2022-08-12T19:42:36.167Z,25.60
2022-08-12T19:45:13.256Z,25.50
2022-08-12T19:47:43.372Z,25.40
2022-08-12T19:50:12.064Z,25.20
2022-08-12T19:52:42.570Z,25.20
2022-08-12T19:55:19.900Z,25.00
2022-08-12T19:58:01.277Z,25.00
2022-08-12T20:00:30.752Z,24.90
2022-08-12T20:03:00.835Z,24.90
2022-08-12T20:06:04.989Z,24.90
2022-08-12T20:08:31.688Z,24.80
2022-08-12T20:12:09.071Z,24.80
2022-08-12T20:14:00.384Z,24.70
2022-08-12T20:16:52.081Z,24.70
2022-08-12T20:19:23.645Z,24.60
2022-08-12T20:21:51.723Z,24.50
2022-08-12T20:24:24.187Z,24.40
2022-08-12T20:26:59.393Z,24.30
2022-08-12T20:29:35.605Z,24.20
2022-08-12T20:32:05.881Z,24.10
2022-08-12T20:34:38.913Z,24.10
2022-08-12T20:37:07.049Z,24.00
2022-08-12T20:39:56.634Z,23.90
2022-08-12T20:42:25.281Z,23.80
2022-08-12T20:44:59.509Z,23.70
2022-08-12T20:47:27.337Z,23.70
2022-08-12T20:50:14.373Z,23.60
2022-08-12T20:52:46.069Z,23.60
2022-08-12T20:55:19.312Z,23.50
2022-08-12T20:58:02.136Z,23.50
2022-08-12T21:00:35.066Z,23.50
2022-08-12T21:03:18.051Z,23.50
2022-08-12T21:06:12.668Z,23.50
2022-08-12T21:08:42.628Z,23.40
2022-08-12T21:11:22.161Z,23.40
2022-08-12T21:13:52.251Z,23.40
2022-08-12T21:16:31.478Z,23.40
2022-08-12T21:19:07.977Z,23.30
2022-08-12T21:21:47.095Z,23.30
2022-08-12T21:24:18.298Z,23.30
2022-08-12T21:26:53.461Z,23.20
2022-08-12T21:29:22.749Z,23.20
2022-08-12T21:32:39.258Z,23.10
2022-08-12T21:34:39.668Z,23.10
2022-08-12T21:37:13.258Z,23.10
2022-08-12T21:39:57.700Z,23.00
2022-08-12T21:42:27.731Z,23.00
2022-08-12T21:44:59.180Z,23.00
2022-08-12T21:47:53.246Z,23.00
2022-08-12T21:50:21.277Z,23.00
2022-08-12T21:52:50.158Z,23.00
2022-08-12T21:55:20.234Z,22.90
2022-08-12T21:57:54.850Z,22.90
2022-08-12T22:00:34.343Z,22.90
2022-08-12T22:04:01.698Z,22.80
2022-08-12T22:06:30.547Z,22.80
2022-08-12T22:09:03.445Z,22.80
2022-08-12T22:11:41.601Z,22.80
2022-08-12T22:14:21.904Z,22.80
2022-08-12T22:16:53.909Z,22.70
2022-08-12T22:19:22.882Z,22.70
2022-08-12T22:21:53.818Z,22.70
2022-08-12T22:24:25.722Z,22.70
2022-08-12T22:26:56.476Z,22.70
2022-08-12T22:29:52.202Z,22.70
2022-08-12T22:32:20.352Z,22.60
2022-08-12T22:35:08.473Z,22.60
2022-08-12T22:37:39.016Z,22.60
2022-08-12T22:40:08.094Z,22.50
2022-08-12T22:42:53.652Z,22.50
2022-08-12T22:45:48.460Z,22.50
2022-08-12T22:48:26.863Z,22.50
2022-08-12T22:50:59.133Z,22.50
2022-08-12T22:53:36.437Z,22.40
2022-08-12T22:56:07.137Z,22.40
2022-08-12T22:58:40.633Z,22.40
2022-08-12T23:01:21.255Z,22.40
2022-08-12T23:04:00.292Z,22.30
2022-08-12T23:06:30.687Z,22.30
2022-08-12T23:08:59.739Z,22.30
2022-08-12T23:11:33.643Z,22.30
2022-08-12T23:14:04.250Z,22.30
2022-08-12T23:16:34.330Z,22.30
2022-08-12T23:19:09.609Z,22.20
2022-08-12T23:21:40.434Z,22.20
2022-08-12T23:24:29.147Z,22.20
2022-08-12T23:27:11.036Z,22.10
2022-08-12T23:29:43.948Z,22.10
2022-08-12T23:32:36.060Z,22.10
2022-08-12T23:35:22.397Z,22.10
2022-08-12T23:37:53.846Z,22.10
2022-08-12T23:40:25.834Z,22.10
2022-08-12T23:42:55.167Z,22.10
2022-08-12T23:45:33.803Z,22.00
2022-08-12T23:48:05.718Z,22.00
2022-08-12T23:50:35.102Z,22.00
2022-08-12T23:53:06.411Z,22.00
2022-08-12T23:55:42.086Z,22.00
2022-08-12T23:58:21.747Z,22.00
